createdAt,value
2023-04-16T00:00:47.958Z,90.29
2023-04-16T00:01:47.953Z,90.32
2023-04-16T00:02:48.072Z,90.35
2023-04-16T00:03:48.336Z,90.35
2023-04-16T00:04:47.912Z,90.37
2023-04-16T00:05:47.864Z,90.39
2023-04-16T00:06:47.828Z,90.39
2023-04-16T00:07:47.835Z,90.39
2023-04-16T00:08:47.808Z,90.41
2023-04-16T00:09:47.825Z,90.43
2023-04-16T00:10:47.812Z,90.46
2023-04-16T00:11:47.804Z,90.46
2023-04-16T00:12:47.798Z,90.48
2023-04-16T00:13:47.789Z,90.49
2023-04-16T00:14:47.770Z,90.49
2023-04-16T00:15:47.751Z,90.50
2023-04-16T00:16:47.842Z,90.50
2023-04-16T00:17:47.821Z,90.51
2023-04-16T00:18:47.766Z,90.51
2023-04-16T00:19:47.724Z,90.54
2023-04-16T00:20:47.689Z,90.59
2023-04-16T00:21:47.694Z,90.61
2023-04-16T00:22:47.681Z,90.64
2023-04-16T00:23:47.659Z,90.65
2023-04-16T00:24:47.654Z,90.65
2023-04-16T00:25:47.666Z,90.64
2023-04-16T00:26:47.680Z,90.64
2023-04-16T00:27:47.648Z,90.61
2023-04-16T00:28:47.625Z,90.59
2023-04-16T00:29:47.597Z,90.59
2023-04-16T00:30:47.640Z,90.59
2023-04-16T00:31:47.600Z,90.59
2023-04-16T00:32:47.677Z,90.58
2023-04-16T00:33:47.598Z,90.63
2023-04-16T00:34:47.556Z,90.66
2023-04-16T00:35:47.535Z,90.70
2023-04-16T00:36:47.545Z,90.73
2023-04-16T00:37:47.516Z,90.76
2023-04-16T00:38:47.550Z,90.78
2023-04-16T00:39:47.512Z,90.81
2023-04-16T00:40:47.512Z,90.83
2023-04-16T00:41:47.516Z,90.84
2023-04-16T00:42:47.478Z,90.86
2023-04-16T00:43:47.478Z,90.89
2023-04-16T00:44:47.484Z,90.91
2023-04-16T00:45:47.503Z,90.94
2023-04-16T00:46:47.599Z,90.96
2023-04-16T00:47:47.497Z,90.96
2023-04-16T00:48:47.424Z,90.98
2023-04-16T00:49:47.447Z,91.00
2023-04-16T00:50:47.394Z,91.00
2023-04-16T00:51:47.409Z,91.02
2023-04-16T00:52:47.375Z,91.03
2023-04-16T00:53:47.372Z,91.05
2023-04-16T00:54:47.405Z,91.06
2023-04-16T00:55:47.390Z,91.04
2023-04-16T00:56:47.440Z,91.03
2023-04-16T00:57:47.365Z,91.01
2023-04-16T00:58:47.309Z,91.01
2023-04-16T00:59:47.313Z,91.00
2023-04-16T01:02:04.967Z,90.71
2023-04-16T01:03:06.162Z,91.06
2023-04-16T01:04:05.928Z,91.01
2023-04-16T01:05:05.846Z,90.99
2023-04-16T01:06:05.836Z,90.98
2023-04-16T01:07:05.871Z,90.98
2023-04-16T01:08:05.821Z,91.01
2023-04-16T01:09:05.825Z,91.00
2023-04-16T01:10:05.799Z,91.03
2023-04-16T01:11:05.788Z,91.02
2023-04-16T01:12:05.794Z,91.05
2023-04-16T01:13:05.769Z,91.07
2023-04-16T01:14:05.788Z,91.08
2023-04-16T01:15:05.761Z,91.10
2023-04-16T01:16:05.764Z,91.11
2023-04-16T01:17:05.731Z,91.14
2023-04-16T01:18:05.779Z,91.13
2023-04-16T01:19:05.743Z,91.16
2023-04-16T01:20:05.725Z,91.12
2023-04-16T01:21:05.697Z,91.15
2023-04-16T01:22:05.705Z,91.16
2023-04-16T01:23:05.693Z,91.18
2023-04-16T01:24:05.676Z,91.18
2023-04-16T01:25:05.656Z,91.22
2023-04-16T01:26:05.708Z,91.22
2023-04-16T01:27:05.632Z,91.23
2023-04-16T01:28:05.638Z,91.26
2023-04-16T01:29:05.648Z,91.29
2023-04-16T01:30:05.619Z,91.32
2023-04-16T01:31:05.666Z,91.33
2023-04-16T01:32:05.580Z,91.36
2023-04-16T01:33:05.587Z,91.38
2023-04-16T01:34:05.611Z,91.41
2023-04-16T01:35:05.583Z,91.42
2023-04-16T01:36:05.541Z,91.44
2023-04-16T01:37:05.550Z,91.47
2023-04-16T01:38:05.520Z,91.48
2023-04-16T01:39:05.542Z,91.50
2023-04-16T01:40:05.547Z,91.52
2023-04-16T01:41:05.551Z,91.52
2023-04-16T01:42:05.492Z,91.57
2023-04-16T01:43:05.475Z,91.57
2023-04-16T01:44:05.468Z,91.63
2023-04-16T01:45:05.452Z,91.62
2023-04-16T01:46:05.461Z,91.65
2023-04-16T01:47:05.503Z,91.67
2023-04-16T01:48:05.443Z,91.67
2023-04-16T01:49:05.440Z,91.71
2023-04-16T01:50:05.410Z,91.72
2023-04-16T01:51:05.408Z,91.73
2023-04-16T01:52:05.396Z,91.73
2023-04-16T01:53:05.388Z,91.75
2023-04-16T01:54:05.379Z,91.76
2023-04-16T01:55:05.391Z,91.76
2023-04-16T01:56:05.387Z,91.78
2023-04-16T01:57:05.373Z,91.78
2023-04-16T01:58:05.368Z,91.80
2023-04-16T01:59:05.328Z,91.79
2023-04-16T02:00:05.336Z,91.82
2023-04-16T02:01:05.348Z,91.82
2023-04-16T02:02:05.335Z,91.84
2023-04-16T02:03:05.411Z,91.83
2023-04-16T02:04:05.378Z,91.85
2023-04-16T02:05:05.261Z,91.85
2023-04-16T02:06:05.270Z,91.85
2023-04-16T02:07:05.264Z,91.86
2023-04-16T02:08:05.235Z,91.85
2023-04-16T02:09:05.222Z,91.84
2023-04-16T02:10:05.327Z,91.86
2023-04-16T02:11:05.194Z,91.87
2023-04-16T02:12:05.219Z,91.86
2023-04-16T02:13:05.199Z,91.85
2023-04-16T02:14:05.170Z,91.86
2023-04-16T02:15:05.169Z,91.88
2023-04-16T02:16:05.171Z,91.88
2023-04-16T02:17:05.177Z,91.88
2023-04-16T02:18:05.174Z,91.88
2023-04-16T02:19:05.114Z,91.87
2023-04-16T02:20:05.105Z,91.88
2023-04-16T02:21:05.199Z,91.87
2023-04-16T02:22:05.123Z,91.88
2023-04-16T02:23:05.080Z,91.89
2023-04-16T02:24:05.061Z,91.86
2023-04-16T02:25:05.070Z,91.89
2023-04-16T02:26:05.068Z,91.87
2023-04-16T02:27:05.407Z,91.87
2023-04-16T02:28:05.030Z,91.89
2023-04-16T02:29:05.045Z,91.90
2023-04-16T02:30:05.031Z,91.88
2023-04-16T02:31:05.023Z,91.87
2023-04-16T02:32:05.065Z,91.88
2023-04-16T02:33:04.992Z,91.88
2023-04-16T02:34:04.963Z,91.89
2023-04-16T02:35:04.962Z,91.88
2023-04-16T02:36:04.968Z,91.89
2023-04-16T02:37:04.948Z,91.91
2023-04-16T02:38:04.938Z,91.90
2023-04-16T02:39:04.976Z,91.89
2023-04-16T02:40:04.912Z,91.91
2023-04-16T02:41:04.926Z,91.92
2023-04-16T02:42:04.912Z,91.94
2023-04-16T02:43:04.906Z,91.94
2023-04-16T02:44:04.875Z,91.96
2023-04-16T02:45:04.886Z,91.96
2023-04-16T02:46:04.900Z,91.97
2023-04-16T02:47:04.840Z,91.97
2023-04-16T02:48:04.839Z,91.99
2023-04-16T02:49:04.842Z,91.97
2023-04-16T02:50:04.836Z,91.98
2023-04-16T02:51:04.809Z,91.98
2023-04-16T02:52:04.792Z,92.00
2023-04-16T02:53:04.787Z,92.01
2023-04-16T02:54:04.796Z,92.02
2023-04-16T02:55:04.782Z,92.02
2023-04-16T02:56:04.744Z,92.03
2023-04-16T02:57:04.837Z,92.03
2023-04-16T02:58:04.738Z,92.05
2023-04-16T02:59:04.743Z,92.07
2023-04-16T03:00:04.710Z,92.07
2023-04-16T03:01:04.838Z,92.07
2023-04-16T03:02:04.727Z,92.08
2023-04-16T03:03:04.709Z,92.10
2023-04-16T03:04:04.694Z,92.11
2023-04-16T03:05:04.663Z,92.12
2023-04-16T03:06:04.648Z,92.12
2023-04-16T03:07:04.707Z,92.13
2023-04-16T03:08:04.630Z,92.16
2023-04-16T03:09:04.622Z,92.15
2023-04-16T03:10:04.607Z,92.17
2023-04-16T03:11:04.616Z,92.18
2023-04-16T03:12:04.609Z,92.20
2023-04-16T03:13:04.591Z,92.20
2023-04-16T03:14:04.624Z,92.21
2023-04-16T03:15:04.600Z,92.21
2023-04-16T03:16:04.585Z,92.22
2023-04-16T03:17:04.544Z,92.22
2023-04-16T03:18:04.788Z,92.22
2023-04-16T03:19:04.536Z,92.20
2023-04-16T03:20:04.524Z,92.21
2023-04-16T03:21:04.518Z,92.21
2023-04-16T03:22:04.500Z,92.21
2023-04-16T03:23:04.498Z,92.21
2023-04-16T03:24:04.498Z,92.19
2023-04-16T03:25:04.480Z,92.19
2023-04-16T03:26:04.484Z,92.18
2023-04-16T03:27:04.458Z,92.16
2023-04-16T03:28:04.442Z,92.14
2023-04-16T03:29:04.427Z,92.12
2023-04-16T03:30:04.437Z,92.13
2023-04-16T03:31:04.655Z,92.12
2023-04-16T03:32:04.431Z,92.11
2023-04-16T03:33:04.396Z,92.10
2023-04-16T03:34:04.402Z,92.09
2023-04-16T03:35:04.379Z,92.07
2023-04-16T03:36:04.387Z,92.06
2023-04-16T03:37:04.408Z,92.04
2023-04-16T03:38:04.352Z,92.04
2023-04-16T03:39:04.346Z,92.03
2023-04-16T03:40:04.382Z,92.03
2023-04-16T03:41:04.316Z,92.01
2023-04-16T03:42:04.315Z,92.02
2023-04-16T03:43:04.330Z,91.99
2023-04-16T03:44:04.289Z,91.97
2023-04-16T03:45:04.296Z,91.96
2023-04-16T03:46:04.357Z,91.92
2023-04-16T03:47:04.251Z,91.89
2023-04-16T03:48:04.249Z,91.86
2023-04-16T03:49:04.333Z,91.81
2023-04-16T03:50:04.242Z,91.77
2023-04-16T03:51:04.209Z,91.70
2023-04-16T03:52:04.229Z,91.64
2023-04-16T03:53:04.301Z,91.55
2023-04-16T03:54:04.190Z,91.49
2023-04-16T03:55:04.184Z,91.40
2023-04-16T03:56:04.243Z,91.33
2023-04-16T03:57:04.168Z,91.23
2023-04-16T03:58:04.141Z,91.14
2023-04-16T03:59:04.149Z,91.07
2023-04-16T04:00:04.107Z,90.97
2023-04-16T04:01:04.135Z,90.91
2023-04-16T04:02:04.247Z,90.87
2023-04-16T04:03:04.385Z,90.83
2023-04-16T04:04:04.360Z,90.78
2023-04-16T04:05:04.202Z,90.76
2023-04-16T04:06:04.104Z,90.72
2023-04-16T04:07:04.215Z,90.72
2023-04-16T04:08:04.030Z,90.67
2023-04-16T04:09:04.034Z,90.64
2023-04-16T04:10:03.999Z,90.61
2023-04-16T04:11:03.966Z,90.60
2023-04-16T04:12:03.970Z,90.60
2023-04-16T04:13:03.947Z,90.58
2023-04-16T04:14:03.962Z,90.57
2023-04-16T04:15:03.925Z,90.53
2023-04-16T04:16:03.958Z,90.48
2023-04-16T04:17:03.909Z,90.45
2023-04-16T04:18:03.953Z,90.42
2023-04-16T04:19:03.892Z,90.39
2023-04-16T04:20:03.877Z,90.39
2023-04-16T04:21:03.886Z,90.36
2023-04-16T04:22:03.898Z,90.33
2023-04-16T04:23:03.858Z,90.32
2023-04-16T04:24:03.843Z,90.31
2023-04-16T04:25:03.836Z,90.28
2023-04-16T04:26:03.981Z,90.29
2023-04-16T04:27:03.824Z,90.31
2023-04-16T04:28:03.833Z,90.31
2023-04-16T04:29:03.860Z,90.34
2023-04-16T04:30:03.812Z,90.35
2023-04-16T04:31:03.782Z,90.34
2023-04-16T04:32:03.832Z,90.35
2023-04-16T04:33:03.829Z,90.37
2023-04-16T04:34:03.756Z,90.37
2023-04-16T04:35:03.820Z,90.34
2023-04-16T04:36:03.753Z,90.33
2023-04-16T04:37:03.773Z,90.30
2023-04-16T04:38:03.707Z,90.32
2023-04-16T04:39:03.755Z,90.28
2023-04-16T04:40:03.682Z,90.32
2023-04-16T04:41:03.794Z,90.34
2023-04-16T04:42:03.838Z,90.31
2023-04-16T04:43:03.649Z,90.27
2023-04-16T04:44:03.715Z,90.28
2023-04-16T04:45:03.656Z,90.28
2023-04-16T04:46:03.758Z,90.29
2023-04-16T04:47:03.605Z,90.31
2023-04-16T04:48:03.654Z,90.29
2023-04-16T04:49:03.593Z,90.30
2023-04-16T04:50:03.583Z,90.32
2023-04-16T04:51:05.027Z,90.33
2023-04-16T04:52:03.578Z,90.34
2023-04-16T04:53:03.555Z,90.37
2023-04-16T04:54:03.550Z,90.39
2023-04-16T04:55:03.540Z,90.37
2023-04-16T04:56:12.352Z,90.32
2023-04-16T04:57:03.573Z,90.26
2023-04-16T04:58:03.493Z,90.24
2023-04-16T04:59:03.489Z,90.26
2023-04-16T05:00:03.491Z,90.26
2023-04-16T05:01:03.587Z,90.17
2023-04-16T05:02:03.588Z,90.13
2023-04-16T05:03:03.555Z,90.07
2023-04-16T05:04:03.463Z,90.05
2023-04-16T05:05:03.490Z,89.96
2023-04-16T05:06:03.421Z,89.84
2023-04-16T05:07:03.429Z,89.74
2023-04-16T05:08:03.410Z,89.66
2023-04-16T05:09:03.394Z,89.55
2023-04-16T05:10:03.384Z,89.47
2023-04-16T05:11:03.387Z,89.43
2023-04-16T05:12:03.371Z,89.43
2023-04-16T05:13:03.375Z,89.40
2023-04-16T05:14:03.373Z,89.32
2023-04-16T05:15:03.349Z,89.35
2023-04-16T05:16:03.346Z,89.33
2023-04-16T05:17:03.490Z,89.35
2023-04-16T05:18:03.449Z,89.33
2023-04-16T05:19:03.322Z,89.24
2023-04-16T05:20:03.304Z,89.19
2023-04-16T05:21:03.303Z,89.24
2023-04-16T05:22:03.282Z,89.23
2023-04-16T05:23:03.279Z,89.31
2023-04-16T05:24:03.258Z,89.32
2023-04-16T05:25:03.289Z,89.32
2023-04-16T05:26:03.252Z,89.32
2023-04-16T05:27:03.227Z,89.40
2023-04-16T05:28:03.214Z,89.46
2023-04-16T05:29:03.227Z,89.50
2023-04-16T05:30:03.192Z,89.51
2023-04-16T05:31:03.292Z,89.55
2023-04-16T05:32:03.212Z,89.60
2023-04-16T05:33:03.170Z,89.61
2023-04-16T05:34:03.179Z,89.58
2023-04-16T05:35:03.161Z,89.58
2023-04-16T05:36:03.200Z,89.58
2023-04-16T05:37:03.151Z,89.57
2023-04-16T05:38:03.139Z,89.56
2023-04-16T05:39:03.108Z,89.56
2023-04-16T05:40:03.131Z,89.51
2023-04-16T05:41:03.079Z,89.44
2023-04-16T05:42:03.114Z,89.38
2023-04-16T05:43:03.070Z,89.33
2023-04-16T05:44:03.075Z,89.35
2023-04-16T05:45:03.050Z,89.37
2023-04-16T05:46:03.103Z,89.34
2023-04-16T05:47:03.028Z,89.34
2023-04-16T05:48:03.026Z,89.31
2023-04-16T05:49:02.990Z,89.29
2023-04-16T05:50:02.988Z,89.28
2023-04-16T05:51:02.995Z,89.28
2023-04-16T05:52:02.981Z,89.23
2023-04-16T05:53:02.971Z,89.21
2023-04-16T05:54:02.993Z,89.20
2023-04-16T05:55:02.953Z,89.20
2023-04-16T05:56:02.958Z,89.12
2023-04-16T05:57:02.926Z,89.13
2023-04-16T05:58:02.937Z,89.13
2023-04-16T05:59:02.949Z,89.11
2023-04-16T06:00:02.921Z,89.12
2023-04-16T06:01:02.884Z,89.17
2023-04-16T06:02:02.929Z,89.26
2023-04-16T06:03:03.101Z,89.34
2023-04-16T06:04:02.978Z,89.29
2023-04-16T06:05:02.861Z,89.22
2023-04-16T06:06:03.004Z,89.21
2023-04-16T06:07:02.823Z,89.27
2023-04-16T06:08:02.836Z,89.32
2023-04-16T06:09:02.813Z,89.36
2023-04-16T06:10:02.847Z,89.35
2023-04-16T06:11:02.827Z,89.29
2023-04-16T06:12:02.872Z,89.24
2023-04-16T06:13:02.773Z,89.23
2023-04-16T06:14:02.758Z,89.17
2023-04-16T06:15:02.749Z,89.18
2023-04-16T06:16:02.806Z,89.16
2023-04-16T06:17:02.739Z,89.16
2023-04-16T06:18:02.775Z,89.12
2023-04-16T06:19:02.724Z,89.13
2023-04-16T06:20:02.711Z,89.19
2023-04-16T06:21:02.734Z,89.20
2023-04-16T06:22:02.681Z,89.20
2023-04-16T06:23:02.672Z,89.16
2023-04-16T06:24:02.663Z,89.05
2023-04-16T06:25:02.657Z,88.99
2023-04-16T06:26:02.637Z,89.00
2023-04-16T06:27:02.647Z,88.96
2023-04-16T06:28:02.622Z,88.90
2023-04-16T06:29:02.610Z,88.90
2023-04-16T06:30:02.632Z,88.94
2023-04-16T06:31:02.607Z,88.98
2023-04-16T06:32:02.628Z,89.03
2023-04-16T06:33:02.660Z,88.99
2023-04-16T06:34:02.584Z,89.02
2023-04-16T06:35:02.554Z,88.94
2023-04-16T06:36:02.570Z,88.94
2023-04-16T06:37:02.532Z,88.88
2023-04-16T06:38:02.537Z,88.88
2023-04-16T06:39:02.527Z,88.93
2023-04-16T06:40:02.522Z,88.98
2023-04-16T06:41:02.499Z,88.95
2023-04-16T06:42:02.494Z,88.98
2023-04-16T06:43:02.481Z,88.99
2023-04-16T06:44:02.460Z,88.90
2023-04-16T06:45:02.482Z,88.92
2023-04-16T06:46:02.453Z,88.89
2023-04-16T06:47:02.541Z,88.94
2023-04-16T06:48:02.474Z,88.95
2023-04-16T06:49:02.423Z,88.89
2023-04-16T06:50:02.425Z,88.81
2023-04-16T06:51:02.401Z,88.73
2023-04-16T06:52:04.560Z,88.81
2023-04-16T06:53:02.381Z,88.91
2023-04-16T06:54:02.361Z,88.96
2023-04-16T06:55:02.377Z,89.08
2023-04-16T06:56:02.354Z,89.12
2023-04-16T06:57:02.345Z,89.16
2023-04-16T06:58:02.372Z,89.18
2023-04-16T06:59:02.310Z,89.22
2023-04-16T07:00:02.308Z,89.24
2023-04-16T07:01:02.302Z,89.30
2023-04-16T07:02:02.378Z,89.29
2023-04-16T07:03:02.575Z,89.28
2023-04-16T07:04:02.554Z,89.20
2023-04-16T07:05:02.309Z,89.22
2023-04-16T07:06:02.249Z,89.21
2023-04-16T07:07:02.273Z,89.10
2023-04-16T07:08:02.225Z,88.95
2023-04-16T07:09:02.238Z,88.72
2023-04-16T07:10:02.280Z,88.44
2023-04-16T07:11:02.295Z,88.36
2023-04-16T07:12:02.196Z,88.43
2023-04-16T07:13:02.264Z,88.46
2023-04-16T07:14:02.213Z,88.40
2023-04-16T07:15:02.228Z,88.22
2023-04-16T07:16:02.263Z,88.14
2023-04-16T07:17:02.212Z,88.22
2023-04-16T07:18:02.175Z,88.30
2023-04-16T07:19:02.193Z,88.40
2023-04-16T07:20:02.141Z,88.51
2023-04-16T07:21:02.112Z,88.20
2023-04-16T07:22:02.149Z,87.97
2023-04-16T07:23:02.156Z,87.99
2023-04-16T07:24:02.098Z,87.85
2023-04-16T07:25:02.175Z,87.67
2023-04-16T07:26:02.058Z,87.64
2023-04-16T07:27:02.046Z,87.56
2023-04-16T07:28:02.058Z,87.10
2023-04-16T07:29:02.052Z,87.00
2023-04-16T07:30:02.031Z,87.21
2023-04-16T07:31:02.004Z,87.11
2023-04-16T07:32:02.111Z,87.08
2023-04-16T07:33:02.065Z,87.26
2023-04-16T07:34:01.983Z,87.57
2023-04-16T07:35:01.949Z,87.63
2023-04-16T07:36:01.971Z,87.62
2023-04-16T07:37:02.014Z,87.70
2023-04-16T07:38:02.015Z,87.63
2023-04-16T07:39:01.949Z,87.25
2023-04-16T07:40:01.903Z,87.16
2023-04-16T07:41:01.952Z,87.03
2023-04-16T07:42:01.926Z,87.18
2023-04-16T07:43:01.895Z,86.98
2023-04-16T07:44:01.886Z,86.84
2023-04-16T07:45:01.856Z,86.84
2023-04-16T07:46:01.936Z,86.95
2023-04-16T07:47:03.482Z,86.94
2023-04-16T07:48:01.870Z,87.28
2023-04-16T07:49:01.823Z,87.12
2023-04-16T07:50:01.830Z,86.97
2023-04-16T07:51:01.832Z,87.06
2023-04-16T07:52:01.819Z,86.96
2023-04-16T07:53:01.792Z,86.93
2023-04-16T07:54:01.778Z,86.99
2023-04-16T07:55:01.817Z,86.68
2023-04-16T07:56:01.765Z,86.66
2023-04-16T07:57:01.759Z,86.67
2023-04-16T07:58:01.766Z,86.66
2023-04-16T07:59:14.372Z,86.69
2023-04-16T08:00:02.532Z,86.81
2023-04-16T08:01:01.739Z,86.37
2023-04-16T08:02:01.789Z,86.19
2023-04-16T08:03:01.830Z,85.99
2023-04-16T08:04:01.836Z,86.21
2023-04-16T08:05:01.691Z,86.54
2023-04-16T08:06:01.687Z,86.38
2023-04-16T08:07:01.667Z,86.68
2023-04-16T08:08:01.632Z,86.77
2023-04-16T08:09:01.633Z,86.35
2023-04-16T08:10:01.649Z,86.41
2023-04-16T08:11:01.626Z,86.26
2023-04-16T08:12:01.813Z,86.56
2023-04-16T08:13:01.585Z,86.47
2023-04-16T08:14:01.657Z,86.52
2023-04-16T08:15:01.581Z,86.83
2023-04-16T08:16:01.591Z,87.08
2023-04-16T08:17:01.823Z,87.06
2023-04-16T08:18:01.550Z,86.79
2023-04-16T08:19:01.625Z,86.48
2023-04-16T08:20:01.540Z,85.91
2023-04-16T08:21:01.593Z,85.46
2023-04-16T08:22:01.505Z,85.26
2023-04-16T08:23:01.599Z,85.72
2023-04-16T08:24:01.538Z,86.19
2023-04-16T08:25:01.498Z,86.31
2023-04-16T08:26:01.478Z,85.67
2023-04-16T08:27:11.535Z,85.95
2023-04-16T08:28:01.459Z,86.37
2023-04-16T08:29:01.508Z,86.28
2023-04-16T08:30:01.403Z,85.76
2023-04-16T08:31:01.445Z,86.44
2023-04-16T08:32:01.415Z,85.88
2023-04-16T08:33:01.494Z,86.28
2023-04-16T08:34:01.371Z,85.91
2023-04-16T08:35:01.402Z,86.07
2023-04-16T08:36:01.382Z,86.39
2023-04-16T08:37:01.350Z,86.29
2023-04-16T08:38:02.508Z,86.10
2023-04-16T08:39:01.352Z,85.96
2023-04-16T08:40:01.637Z,86.39
2023-04-16T08:41:01.473Z,86.44
2023-04-16T08:42:01.760Z,85.95
2023-04-16T08:43:01.314Z,86.01
2023-04-16T08:44:01.559Z,86.33
2023-04-16T08:45:01.440Z,86.60
2023-04-16T08:46:01.277Z,86.76
2023-04-16T08:47:01.441Z,87.08
2023-04-16T08:48:01.393Z,87.27
2023-04-16T08:49:01.274Z,87.09
2023-04-16T08:50:01.246Z,87.20
2023-04-16T08:51:01.260Z,87.34
2023-04-16T08:52:01.226Z,87.35
2023-04-16T08:53:01.205Z,87.20
2023-04-16T08:54:01.305Z,86.80
2023-04-16T08:55:01.248Z,86.18
2023-04-16T08:56:01.190Z,86.03
2023-04-16T08:57:01.230Z,86.20
2023-04-16T08:58:01.214Z,85.95
2023-04-16T08:59:02.160Z,86.31
2023-04-16T09:00:01.174Z,86.09
2023-04-16T09:01:01.174Z,85.66
2023-04-16T09:02:01.260Z,85.68
2023-04-16T09:03:01.310Z,85.78
2023-04-16T09:04:01.408Z,85.76
2023-04-16T09:05:01.181Z,85.79
2023-04-16T09:06:01.151Z,85.52
2023-04-16T09:07:03.365Z,85.61
2023-04-16T09:08:01.118Z,85.45
2023-04-16T09:09:01.186Z,85.77
2023-04-16T09:10:01.097Z,85.62
2023-04-16T09:11:01.126Z,85.90
2023-04-16T09:12:01.113Z,86.10
2023-04-16T09:13:01.070Z,86.24
2023-04-16T09:14:01.051Z,86.35
2023-04-16T09:15:01.083Z,86.26
2023-04-16T09:16:01.411Z,85.91
2023-04-16T09:17:01.202Z,85.66
2023-04-16T09:18:01.108Z,85.29
2023-04-16T09:19:01.016Z,85.13
2023-04-16T09:20:00.977Z,85.01
2023-04-16T09:21:00.938Z,85.07
2023-04-16T09:22:00.950Z,84.91
2023-04-16T09:23:00.966Z,84.35
2023-04-16T09:24:00.958Z,84.48
2023-04-16T09:25:00.955Z,84.72
2023-04-16T09:26:01.006Z,83.84
2023-04-16T09:27:00.897Z,83.56
2023-04-16T09:28:01.549Z,83.46
2023-04-16T09:29:00.877Z,83.33
2023-04-16T09:30:00.912Z,83.12
2023-04-16T09:31:00.868Z,83.13
2023-04-16T09:32:00.909Z,83.39
2023-04-16T09:33:00.916Z,83.29
2023-04-16T09:34:00.820Z,82.79
2023-04-16T09:35:00.928Z,83.00
2023-04-16T09:36:00.823Z,82.76
2023-04-16T09:37:00.858Z,82.90
2023-04-16T09:38:01.057Z,83.53
2023-04-16T09:39:00.843Z,83.93
2023-04-16T09:40:01.041Z,83.88
2023-04-16T09:41:00.964Z,83.85
2023-04-16T09:42:01.692Z,84.06
2023-04-16T09:43:00.924Z,83.77
2023-04-16T09:44:00.757Z,84.17
2023-04-16T09:45:02.640Z,83.57
2023-04-16T09:46:00.756Z,83.65
2023-04-16T09:47:00.689Z,83.44
2023-04-16T09:48:00.758Z,83.56
2023-04-16T09:49:00.730Z,84.01
2023-04-16T09:50:00.618Z,83.76
2023-04-16T09:51:00.639Z,83.68
2023-04-16T09:52:00.610Z,83.79
2023-04-16T09:53:00.603Z,83.63
2023-04-16T09:54:00.609Z,84.06
2023-04-16T09:55:00.583Z,83.53
2023-04-16T09:56:00.586Z,83.93
2023-04-16T09:57:00.560Z,84.15
2023-04-16T09:58:00.573Z,84.17
2023-04-16T09:59:00.535Z,83.50
2023-04-16T10:00:00.545Z,84.10
2023-04-16T10:01:00.544Z,84.41
2023-04-16T10:02:14.544Z,84.89
2023-04-16T10:03:00.597Z,84.84
2023-04-16T10:04:00.545Z,85.18
2023-04-16T10:05:00.507Z,85.53
2023-04-16T10:06:00.574Z,85.52
2023-04-16T10:07:00.453Z,84.75
2023-04-16T10:08:00.472Z,84.42
2023-04-16T10:09:00.454Z,84.15
2023-04-16T10:10:00.425Z,84.85
2023-04-16T10:11:00.419Z,84.81
2023-04-16T10:12:00.402Z,85.03
2023-04-16T10:13:00.406Z,85.37
2023-04-16T10:14:00.411Z,85.25
2023-04-16T10:15:00.400Z,85.76
2023-04-16T10:16:00.438Z,86.02
2023-04-16T10:17:00.472Z,85.82
2023-04-16T10:18:00.432Z,85.28
2023-04-16T10:19:00.649Z,85.45
2023-04-16T10:20:00.360Z,85.41
2023-04-16T10:21:00.363Z,85.12
2023-04-16T10:22:00.316Z,85.32
2023-04-16T10:23:00.351Z,85.81
2023-04-16T10:24:00.345Z,85.68
2023-04-16T10:25:00.381Z,85.23
2023-04-16T10:26:00.356Z,84.95
2023-04-16T10:27:00.340Z,84.72
2023-04-16T10:28:00.250Z,84.31
2023-04-16T10:29:00.237Z,84.35
2023-04-16T10:30:07.384Z,84.75
2023-04-16T10:31:00.431Z,84.78
2023-04-16T10:32:00.642Z,85.04
2023-04-16T10:33:00.779Z,84.59
2023-04-16T10:34:00.340Z,84.65
2023-04-16T10:35:00.186Z,83.73
2023-04-16T10:36:07.545Z,83.64
2023-04-16T10:37:00.239Z,83.76
2023-04-16T10:38:00.216Z,83.93
2023-04-16T10:39:00.143Z,84.48
2023-04-16T10:40:00.271Z,84.48
2023-04-16T10:41:00.158Z,84.43
2023-04-16T10:42:00.133Z,84.81
2023-04-16T10:43:00.332Z,84.55
2023-04-16T10:44:00.176Z,84.03
2023-04-16T10:45:00.110Z,84.00
2023-04-16T10:46:00.111Z,83.77
2023-04-16T10:47:00.138Z,83.77
2023-04-16T10:48:00.085Z,83.67
2023-04-16T10:49:00.128Z,84.01
2023-04-16T10:50:00.161Z,84.26
2023-04-16T10:51:00.100Z,84.56
2023-04-16T10:52:00.009Z,84.11
2023-04-16T10:53:00.031Z,84.15
2023-04-16T10:54:00.049Z,83.83
2023-04-16T10:55:00.080Z,83.43
2023-04-16T10:56:00.037Z,83.26
2023-04-16T10:57:01.664Z,83.29
2023-04-16T10:57:59.968Z,83.59
2023-04-16T10:58:59.967Z,83.55
2023-04-16T11:00:00.728Z,83.50
2023-04-16T11:00:59.938Z,82.23
2023-04-16T11:02:00.057Z,82.19
2023-04-16T11:03:00.021Z,82.52
2023-04-16T11:04:00.114Z,82.88
2023-04-16T11:05:00.003Z,83.29
2023-04-16T11:05:59.949Z,83.29
2023-04-16T11:06:59.918Z,84.29
2023-04-16T11:07:59.930Z,84.19
2023-04-16T11:08:59.886Z,84.42
2023-04-16T11:10:00.210Z,83.85
2023-04-16T11:10:59.864Z,83.95
2023-04-16T11:11:59.825Z,84.15
2023-04-16T11:12:59.890Z,83.30
2023-04-16T11:13:59.872Z,83.42
2023-04-16T11:15:00.137Z,83.41
2023-04-16T11:15:59.840Z,84.22
2023-04-16T11:16:59.814Z,84.31
2023-04-16T11:17:59.825Z,84.16
2023-04-16T11:18:59.774Z,84.31
2023-04-16T11:19:59.726Z,84.28
2023-04-16T11:20:59.793Z,84.87
2023-04-16T11:21:59.714Z,84.72
2023-04-16T11:22:59.712Z,84.26
2023-04-16T11:23:59.675Z,84.74
2023-04-16T11:24:59.723Z,84.91
2023-04-16T11:25:59.696Z,84.73
2023-04-16T11:26:59.667Z,85.19
2023-04-16T11:27:59.638Z,85.02
2023-04-16T11:28:59.646Z,85.13
2023-04-16T11:29:59.631Z,84.94
2023-04-16T11:30:59.730Z,84.87
2023-04-16T11:31:59.611Z,85.07
2023-04-16T11:32:59.679Z,85.24
2023-04-16T11:33:59.656Z,85.03
2023-04-16T11:34:59.588Z,85.65
2023-04-16T11:35:59.632Z,85.53
2023-04-16T11:36:59.580Z,85.82
2023-04-16T11:38:00.419Z,86.04
2023-04-16T11:38:59.629Z,86.21
2023-04-16T11:39:59.525Z,86.35
2023-04-16T11:40:59.539Z,85.90
2023-04-16T11:41:59.526Z,86.50
2023-04-16T11:42:59.885Z,86.00
2023-04-16T11:43:59.561Z,85.52
2023-04-16T11:44:59.565Z,85.71
2023-04-16T11:45:59.511Z,86.29
2023-04-16T11:46:59.512Z,86.18
2023-04-16T11:47:59.482Z,86.54
2023-04-16T11:48:59.485Z,86.55
2023-04-16T11:49:59.444Z,86.48
2023-04-16T11:50:59.476Z,86.46
2023-04-16T11:51:59.502Z,86.22
2023-04-16T11:52:59.457Z,86.13
2023-04-16T11:53:59.427Z,86.47
2023-04-16T11:54:59.398Z,86.79
2023-04-16T11:55:59.581Z,86.51
2023-04-16T11:56:59.687Z,86.57
2023-04-16T11:57:59.409Z,86.97
2023-04-16T11:58:59.328Z,87.22
2023-04-16T12:00:01.474Z,86.84
2023-04-16T12:00:59.328Z,86.94
2023-04-16T12:01:59.396Z,87.03
2023-04-16T12:02:59.530Z,86.86
2023-04-16T12:03:59.614Z,87.00
2023-04-16T12:04:59.300Z,87.07
2023-04-16T12:05:59.287Z,86.97
2023-04-16T12:06:59.338Z,86.60
2023-04-16T12:07:59.280Z,86.88
2023-04-16T12:08:59.260Z,87.06
2023-04-16T12:09:59.259Z,87.24
2023-04-16T12:10:59.266Z,87.33
2023-04-16T12:11:59.260Z,87.17
2023-04-16T12:12:59.341Z,86.94
2023-04-16T12:13:59.297Z,87.07
2023-04-16T12:14:59.208Z,87.14
2023-04-16T12:15:59.238Z,87.32
2023-04-16T12:16:59.261Z,87.52
2023-04-16T12:17:59.229Z,87.52
2023-04-16T12:18:59.356Z,87.74
2023-04-16T12:19:59.179Z,87.47
2023-04-16T12:20:59.225Z,86.91
2023-04-16T12:21:59.182Z,86.80
2023-04-16T12:22:59.251Z,87.03
2023-04-16T12:23:59.093Z,87.12
2023-04-16T12:24:59.121Z,86.92
2023-04-16T12:25:59.110Z,86.87
2023-04-16T12:26:59.087Z,86.77
2023-04-16T12:27:59.160Z,86.36
2023-04-16T12:28:59.047Z,86.47
2023-04-16T12:29:59.213Z,86.10
2023-04-16T12:30:59.056Z,86.36
2023-04-16T12:31:59.077Z,86.53
2023-04-16T12:32:59.227Z,86.57
2023-04-16T12:33:59.178Z,86.13
2023-04-16T12:34:59.084Z,86.34
2023-04-16T12:35:59.051Z,85.91
2023-04-16T12:36:59.073Z,85.97
2023-04-16T12:37:59.039Z,86.08
2023-04-16T12:38:59.043Z,86.29
2023-04-16T12:39:59.044Z,86.52
2023-04-16T12:40:58.968Z,86.36
2023-04-16T12:41:59.051Z,86.20
2023-04-16T12:42:58.960Z,86.55
2023-04-16T12:43:58.935Z,86.33
2023-04-16T12:44:58.949Z,86.14
2023-04-16T12:45:59.061Z,85.78
2023-04-16T12:46:58.883Z,85.67
2023-04-16T12:47:59.063Z,85.92
2023-04-16T12:48:59.096Z,85.95
2023-04-16T12:49:59.014Z,85.86
2023-04-16T12:50:59.209Z,85.82
2023-04-16T12:51:58.911Z,85.79
2023-04-16T12:52:58.907Z,85.74
2023-04-16T12:53:59.044Z,85.92